sensor_id;sensor_type;location;lat;lon;timestamp;P1;durP1;ratioP1;P2;durP2;ratioP2
49688;SDS011;70518;51.400;7.428;2023-11-21T00:02:01;17.02;;;7.38;;
49688;SDS011;70518;51.400;7.428;2023-11-21T00:04:27;15.63;;;6.30;;
49688;SDS011;70518;51.400;7.428;2023-11-21T00:06:52;12.63;;;6.05;;
49688;SDS011;70518;51.400;7.428;2023-11-21T00:09:18;16.92;;;7.50;;
49688;SDS011;70518;51.400;7.428;2023-11-21T00:11:44;14.65;;;6.32;;
49688;SDS011;70518;51.400;7.428;2023-11-21T00:14:13;21.52;;;6.93;;
49688;SDS011;70518;51.400;7.428;2023-11-21T00:16:40;16.90;;;7.70;;
49688;SDS011;70518;51.400;7.428;2023-11-21T00:19:05;17.73;;;7.60;;
49688;SDS011;70518;51.400;7.428;2023-11-21T00:21:31;17.38;;;7.18;;
49688;SDS011;70518;51.400;7.428;2023-11-21T00:23:56;20.70;;;8.15;;
49688;SDS011;70518;51.400;7.428;2023-11-21T00:26:21;20.05;;;8.50;;
49688;SDS011;70518;51.400;7.428;2023-11-21T00:28:46;20.02;;;7.82;;
49688;SDS011;70518;51.400;7.428;2023-11-21T00:31:12;21.20;;;8.25;;
49688;SDS011;70518;51.400;7.428;2023-11-21T00:33:37;18.55;;;8.15;;
49688;SDS011;70518;51.400;7.428;2023-11-21T00:36:02;19.60;;;8.27;;
49688;SDS011;70518;51.400;7.428;2023-11-21T00:38:28;17.77;;;8.88;;
49688;SDS011;70518;51.400;7.428;2023-11-21T00:40:53;23.48;;;9.00;;
49688;SDS011;70518;51.400;7.428;2023-11-21T00:43:21;20.70;;;9.05;;
49688;SDS011;70518;51.400;7.428;2023-11-21T00:45:47;18.08;;;8.02;;
49688;SDS011;70518;51.400;7.428;2023-11-21T00:48:14;20.15;;;8.38;;
49688;SDS011;70518;51.400;7.428;2023-11-21T00:50:39;17.10;;;8.48;;
49688;SDS011;70518;51.400;7.428;2023-11-21T00:53:05;19.02;;;8.82;;
49688;SDS011;70518;51.400;7.428;2023-11-21T00:55:32;17.20;;;8.45;;
49688;SDS011;70518;51.400;7.428;2023-11-21T00:57:57;17.38;;;7.85;;
49688;SDS011;70518;51.400;7.428;2023-11-21T01:00:23;22.08;;;8.68;;
49688;SDS011;70518;51.400;7.428;2023-11-21T01:02:48;19.35;;;8.10;;
49688;SDS011;70518;51.400;7.428;2023-11-21T01:05:14;20.65;;;8.30;;
49688;SDS011;70518;51.400;7.428;2023-11-21T01:07:39;23.17;;;8.48;;
49688;SDS011;70518;51.400;7.428;2023-11-21T01:10:04;19.63;;;8.50;;
49688;SDS011;70518;51.400;7.428;2023-11-21T01:12:32;27.73;;;10.18;;
49688;SDS011;70518;51.400;7.428;2023-11-21T01:14:59;15.40;;;7.95;;
49688;SDS011;70518;51.400;7.428;2023-11-21T01:17:25;21.42;;;9.02;;
49688;SDS011;70518;51.400;7.428;2023-11-21T01:19:51;19.77;;;7.53;;
49688;SDS011;70518;51.400;7.428;2023-11-21T01:22:16;17.88;;;7.63;;
49688;SDS011;70518;51.400;7.428;2023-11-21T01:24:43;21.23;;;7.78;;
49688;SDS011;70518;51.400;7.428;2023-11-21T01:27:08;18.05;;;8.02;;
49688;SDS011;70518;51.400;7.428;2023-11-21T01:29:34;18.38;;;7.85;;
49688;SDS011;70518;51.400;7.428;2023-11-21T01:32:00;16.92;;;7.53;;
49688;SDS011;70518;51.400;7.428;2023-11-21T01:34:27;19.98;;;7.93;;
49688;SDS011;70518;51.400;7.428;2023-11-21T01:36:52;18.73;;;8.30;;
49688;SDS011;70518;51.400;7.428;2023-11-21T01:39:17;17.65;;;7.82;;
49688;SDS011;70518;51.400;7.428;2023-11-21T01:41:48;19.23;;;7.95;;
49688;SDS011;70518;51.400;7.428;2023-11-21T01:44:13;16.58;;;7.22;;
49688;SDS011;70518;51.400;7.428;2023-11-21T01:46:39;17.88;;;8.15;;
49688;SDS011;70518;51.400;7.428;2023-11-21T01:49:05;15.30;;;7.80;;
49688;SDS011;70518;51.400;7.428;2023-11-21T01:51:30;17.00;;;8.10;;
49688;SDS011;70518;51.400;7.428;2023-11-21T01:53:56;12.77;;;7.47;;
49688;SDS011;70518;51.400;7.428;2023-11-21T01:56:21;13.98;;;7.70;;
49688;SDS011;70518;51.400;7.428;2023-11-21T01:58:47;18.33;;;8.30;;
49688;SDS011;70518;51.400;7.428;2023-11-21T02:01:12;16.10;;;7.93;;
49688;SDS011;70518;51.400;7.428;2023-11-21T02:03:39;13.43;;;6.97;;
49688;SDS011;70518;51.400;7.428;2023-11-21T02:06:05;11.38;;;7.18;;
49688;SDS011;70518;51.400;7.428;2023-11-21T02:08:30;12.23;;;6.85;;
49688;SDS011;70518;51.400;7.428;2023-11-21T02:10:56;14.50;;;7.07;;
49688;SDS011;70518;51.400;7.428;2023-11-21T02:13:22;13.90;;;6.82;;
49688;SDS011;70518;51.400;7.428;2023-11-21T02:15:47;12.18;;;6.25;;
49688;SDS011;70518;51.400;7.428;2023-11-21T02:18:14;11.38;;;6.47;;
49688;SDS011;70518;51.400;7.428;2023-11-21T02:20:40;11.70;;;6.25;;
49688;SDS011;70518;51.400;7.428;2023-11-21T02:23:07;11.90;;;6.63;;
49688;SDS011;70518;51.400;7.428;2023-11-21T02:25:33;13.02;;;6.75;;
49688;SDS011;70518;51.400;7.428;2023-11-21T02:28:01;10.38;;;6.45;;
49688;SDS011;70518;51.400;7.428;2023-11-21T02:30:28;13.13;;;6.47;;
49688;SDS011;70518;51.400;7.428;2023-11-21T02:32:56;10.85;;;6.53;;
49688;SDS011;70518;51.400;7.428;2023-11-21T02:35:25;12.68;;;6.53;;
49688;SDS011;70518;51.400;7.428;2023-11-21T02:37:51;13.38;;;6.55;;
49688;SDS011;70518;51.400;7.428;2023-11-21T02:40:16;15.05;;;6.97;;
49688;SDS011;70518;51.400;7.428;2023-11-21T02:42:43;11.77;;;6.55;;
49688;SDS011;70518;51.400;7.428;2023-11-21T02:45:19;11.07;;;6.47;;
49688;SDS011;70518;51.400;7.428;2023-11-21T02:47:49;11.45;;;6.15;;
49688;SDS011;70518;51.400;7.428;2023-11-21T02:50:14;10.02;;;5.78;;
49688;SDS011;70518;51.400;7.428;2023-11-21T02:52:40;10.65;;;6.63;;
49688;SDS011;70518;51.400;7.428;2023-11-21T02:55:05;10.13;;;6.15;;
49688;SDS011;70518;51.400;7.428;2023-11-21T02:57:32;12.52;;;6.00;;
49688;SDS011;70518;51.400;7.428;2023-11-21T02:59:58;10.63;;;6.05;;
49688;SDS011;70518;51.400;7.428;2023-11-21T03:02:25;10.18;;;6.00;;
49688;SDS011;70518;51.400;7.428;2023-11-21T03:04:50;8.85;;;5.60;;
49688;SDS011;70518;51.400;7.428;2023-11-21T03:07:15;12.23;;;6.40;;
49688;SDS011;70518;51.400;7.428;2023-11-21T03:09:41;10.32;;;6.70;;
49688;SDS011;70518;51.400;7.428;2023-11-21T03:12:06;11.57;;;5.63;;
49688;SDS011;70518;51.400;7.428;2023-11-21T03:14:33;11.57;;;7.05;;
49688;SDS011;70518;51.400;7.428;2023-11-21T03:16:59;9.82;;;6.07;;
49688;SDS011;70518;51.400;7.428;2023-11-21T03:19:24;11.27;;;6.05;;
49688;SDS011;70518;51.400;7.428;2023-11-21T03:21:52;12.00;;;6.78;;
49688;SDS011;70518;51.400;7.428;2023-11-21T03:24:18;10.95;;;6.40;;
49688;SDS011;70518;51.400;7.428;2023-11-21T03:26:45;11.90;;;6.75;;
49688;SDS011;70518;51.400;7.428;2023-11-21T03:29:11;12.73;;;6.30;;
49688;SDS011;70518;51.400;7.428;2023-11-21T03:31:36;9.65;;;6.43;;
49688;SDS011;70518;51.400;7.428;2023-11-21T03:34:02;13.35;;;5.75;;
49688;SDS011;70518;51.400;7.428;2023-11-21T03:36:27;13.95;;;6.78;;
49688;SDS011;70518;51.400;7.428;2023-11-21T03:38:52;10.65;;;6.00;;
49688;SDS011;70518;51.400;7.428;2023-11-21T03:41:17;13.23;;;6.22;;
49688;SDS011;70518;51.400;7.428;2023-11-21T03:43:43;12.02;;;6.82;;
49688;SDS011;70518;51.400;7.428;2023-11-21T03:46:08;11.25;;;6.40;;
49688;SDS011;70518;51.400;7.428;2023-11-21T03:48:34;11.38;;;6.03;;
49688;SDS011;70518;51.400;7.428;2023-11-21T03:50:59;10.45;;;5.88;;
49688;SDS011;70518;51.400;7.428;2023-11-21T03:53:24;13.90;;;6.68;;
49688;SDS011;70518;51.400;7.428;2023-11-21T03:55:50;13.18;;;6.00;;
49688;SDS011;70518;51.400;7.428;2023-11-21T03:58:15;14.07;;;6.25;;
49688;SDS011;70518;51.400;7.428;2023-11-21T04:00:40;11.88;;;6.90;;
49688;SDS011;70518;51.400;7.428;2023-11-21T04:03:06;10.55;;;6.28;;
49688;SDS011;70518;51.400;7.428;2023-11-21T04:05:32;11.30;;;6.53;;
49688;SDS011;70518;51.400;7.428;2023-11-21T04:07:57;13.80;;;6.65;;
49688;SDS011;70518;51.400;7.428;2023-11-21T04:10:23;8.43;;;6.30;;
49688;SDS011;70518;51.400;7.428;2023-11-21T04:12:48;11.15;;;6.50;;
49688;SDS011;70518;51.400;7.428;2023-11-21T04:15:13;12.10;;;6.13;;
49688;SDS011;70518;51.400;7.428;2023-11-21T04:17:39;11.05;;;7.43;;
49688;SDS011;70518;51.400;7.428;2023-11-21T04:20:06;12.77;;;6.20;;
49688;SDS011;70518;51.400;7.428;2023-11-21T04:22:34;13.63;;;5.82;;
49688;SDS011;70518;51.400;7.428;2023-11-21T04:25:01;11.85;;;6.47;;
49688;SDS011;70518;51.400;7.428;2023-11-21T04:27:27;13.43;;;6.40;;
49688;SDS011;70518;51.400;7.428;2023-11-21T04:29:52;12.85;;;6.68;;
49688;SDS011;70518;51.400;7.428;2023-11-21T04:32:17;11.30;;;6.00;;
49688;SDS011;70518;51.400;7.428;2023-11-21T04:34:43;11.02;;;5.78;;
49688;SDS011;70518;51.400;7.428;2023-11-21T04:37:08;8.00;;;5.53;;
49688;SDS011;70518;51.400;7.428;2023-11-21T04:39:35;14.43;;;7.60;;
49688;SDS011;70518;51.400;7.428;2023-11-21T04:42:00;12.60;;;6.88;;
49688;SDS011;70518;51.400;7.428;2023-11-21T04:44:26;15.15;;;7.85;;
49688;SDS011;70518;51.400;7.428;2023-11-21T04:46:51;11.32;;;6.70;;
49688;SDS011;70518;51.400;7.428;2023-11-21T04:49:16;13.35;;;7.05;;
49688;SDS011;70518;51.400;7.428;2023-11-21T04:51:42;12.88;;;7.50;;
49688;SDS011;70518;51.400;7.428;2023-11-21T04:54:07;16.25;;;7.18;;
49688;SDS011;70518;51.400;7.428;2023-11-21T04:56:32;14.20;;;7.13;;
49688;SDS011;70518;51.400;7.428;2023-11-21T04:58:57;11.60;;;7.32;;
49688;SDS011;70518;51.400;7.428;2023-11-21T05:01:23;15.45;;;7.55;;
49688;SDS011;70518;51.400;7.428;2023-11-21T05:03:48;12.20;;;6.05;;
49688;SDS011;70518;51.400;7.428;2023-11-21T05:06:14;15.73;;;7.10;;
49688;SDS011;70518;51.400;7.428;2023-11-21T05:08:39;15.77;;;6.90;;
49688;SDS011;70518;51.400;7.428;2023-11-21T05:11:05;13.68;;;7.30;;
49688;SDS011;70518;51.400;7.428;2023-11-21T05:13:33;12.13;;;7.28;;
49688;SDS011;70518;51.400;7.428;2023-11-21T05:15:59;12.70;;;6.68;;
49688;SDS011;70518;51.400;7.428;2023-11-21T05:18:24;14.00;;;7.25;;
49688;SDS011;70518;51.400;7.428;2023-11-21T05:20:52;15.15;;;7.22;;
49688;SDS011;70518;51.400;7.428;2023-11-21T05:23:18;11.35;;;6.97;;
49688;SDS011;70518;51.400;7.428;2023-11-21T05:25:44;11.90;;;7.10;;
49688;SDS011;70518;51.400;7.428;2023-11-21T05:28:11;12.98;;;7.38;;
49688;SDS011;70518;51.400;7.428;2023-11-21T05:30:36;14.05;;;6.68;;
49688;SDS011;70518;51.400;7.428;2023-11-21T05:33:03;11.60;;;6.95;;
49688;SDS011;70518;51.400;7.428;2023-11-21T05:35:28;11.32;;;6.70;;
49688;SDS011;70518;51.400;7.428;2023-11-21T05:37:54;10.82;;;6.32;;
49688;SDS011;70518;51.400;7.428;2023-11-21T05:40:19;12.07;;;6.25;;
49688;SDS011;70518;51.400;7.428;2023-11-21T05:42:47;11.55;;;7.00;;
49688;SDS011;70518;51.400;7.428;2023-11-21T05:45:13;11.98;;;7.45;;
49688;SDS011;70518;51.400;7.428;2023-11-21T05:47:42;12.85;;;7.43;;
49688;SDS011;70518;51.400;7.428;2023-11-21T05:50:10;13.52;;;7.50;;
49688;SDS011;70518;51.400;7.428;2023-11-21T05:52:37;14.23;;;7.68;;
49688;SDS011;70518;51.400;7.428;2023-11-21T05:55:04;18.83;;;8.27;;
49688;SDS011;70518;51.400;7.428;2023-11-21T05:57:32;15.57;;;7.78;;
49688;SDS011;70518;51.400;7.428;2023-11-21T06:00:04;12.50;;;7.10;;
49688;SDS011;70518;51.400;7.428;2023-11-21T06:02:39;15.95;;;7.57;;
49688;SDS011;70518;51.400;7.428;2023-11-21T06:05:06;15.57;;;8.00;;
49688;SDS011;70518;51.400;7.428;2023-11-21T06:07:32;13.25;;;7.97;;
49688;SDS011;70518;51.400;7.428;2023-11-21T06:09:57;17.15;;;8.05;;
49688;SDS011;70518;51.400;7.428;2023-11-21T06:12:22;14.82;;;8.23;;
49688;SDS011;70518;51.400;7.428;2023-11-21T06:14:47;15.77;;;7.50;;
49688;SDS011;70518;51.400;7.428;2023-11-21T06:17:13;15.10;;;7.50;;
49688;SDS011;70518;51.400;7.428;2023-11-21T06:19:38;14.00;;;7.95;;
49688;SDS011;70518;51.400;7.428;2023-11-21T06:22:04;15.38;;;7.55;;
49688;SDS011;70518;51.400;7.428;2023-11-21T06:24:29;17.25;;;7.93;;
49688;SDS011;70518;51.400;7.428;2023-11-21T06:26:54;17.38;;;7.72;;
49688;SDS011;70518;51.400;7.428;2023-11-21T06:29:19;14.98;;;7.75;;
49688;SDS011;70518;51.400;7.428;2023-11-21T06:31:45;14.95;;;8.05;;
49688;SDS011;70518;51.400;7.428;2023-11-21T06:34:11;15.70;;;7.82;;
49688;SDS011;70518;51.400;7.428;2023-11-21T06:36:37;13.95;;;7.55;;
49688;SDS011;70518;51.400;7.428;2023-11-21T06:39:02;16.27;;;7.97;;
49688;SDS011;70518;51.400;7.428;2023-11-21T06:41:28;17.23;;;7.35;;
49688;SDS011;70518;51.400;7.428;2023-11-21T06:43:54;16.08;;;7.72;;
49688;SDS011;70518;51.400;7.428;2023-11-21T06:46:19;13.45;;;7.18;;
49688;SDS011;70518;51.400;7.428;2023-11-21T06:48:45;15.10;;;7.68;;
49688;SDS011;70518;51.400;7.428;2023-11-21T06:51:11;17.73;;;8.00;;
49688;SDS011;70518;51.400;7.428;2023-11-21T06:53:36;17.65;;;8.38;;
49688;SDS011;70518;51.400;7.428;2023-11-21T06:56:02;13.70;;;7.82;;
49688;SDS011;70518;51.400;7.428;2023-11-21T06:58:28;18.13;;;8.20;;
49688;SDS011;70518;51.400;7.428;2023-11-21T07:00:53;18.60;;;7.90;;
49688;SDS011;70518;51.400;7.428;2023-11-21T07:03:19;14.45;;;7.63;;
49688;SDS011;70518;51.400;7.428;2023-11-21T07:05:44;15.25;;;7.32;;
49688;SDS011;70518;51.400;7.428;2023-11-21T07:08:10;13.68;;;7.57;;
49688;SDS011;70518;51.400;7.428;2023-11-21T07:10:36;14.55;;;7.82;;
49688;SDS011;70518;51.400;7.428;2023-11-21T07:13:01;16.15;;;8.05;;
49688;SDS011;70518;51.400;7.428;2023-11-21T07:15:27;13.13;;;7.03;;
49688;SDS011;70518;51.400;7.428;2023-11-21T07:17:53;12.90;;;7.30;;
49688;SDS011;70518;51.400;7.428;2023-11-21T07:20:19;18.08;;;7.80;;
49688;SDS011;70518;51.400;7.428;2023-11-21T07:22:44;15.13;;;7.82;;
49688;SDS011;70518;51.400;7.428;2023-11-21T07:25:10;17.23;;;8.32;;
49688;SDS011;70518;51.400;7.428;2023-11-21T07:27:35;14.77;;;7.90;;
49688;SDS011;70518;51.400;7.428;2023-11-21T07:30:02;16.00;;;8.20;;
49688;SDS011;70518;51.400;7.428;2023-11-21T07:32:31;17.98;;;8.52;;
49688;SDS011;70518;51.400;7.428;2023-11-21T07:34:57;16.98;;;8.75;;
49688;SDS011;70518;51.400;7.428;2023-11-21T07:37:24;17.25;;;7.90;;
49688;SDS011;70518;51.400;7.428;2023-11-21T07:39:51;11.90;;;7.03;;
49688;SDS011;70518;51.400;7.428;2023-11-21T07:42:20;16.92;;;8.10;;
49688;SDS011;70518;51.400;7.428;2023-11-21T07:44:45;14.43;;;8.38;;
49688;SDS011;70518;51.400;7.428;2023-11-21T07:47:11;18.52;;;8.90;;
49688;SDS011;70518;51.400;7.428;2023-11-21T07:49:36;18.95;;;8.57;;
49688;SDS011;70518;51.400;7.428;2023-11-21T07:52:02;21.60;;;9.77;;
49688;SDS011;70518;51.400;7.428;2023-11-21T07:54:27;17.42;;;9.38;;
49688;SDS011;70518;51.400;7.428;2023-11-21T07:56:52;22.40;;;10.02;;
49688;SDS011;70518;51.400;7.428;2023-11-21T07:59:18;14.95;;;8.38;;
49688;SDS011;70518;51.400;7.428;2023-11-21T08:01:43;15.43;;;7.90;;
49688;SDS011;70518;51.400;7.428;2023-11-21T08:04:10;21.38;;;10.35;;
49688;SDS011;70518;51.400;7.428;2023-11-21T08:06:35;18.88;;;9.57;;
49688;SDS011;70518;51.400;7.428;2023-11-21T08:09:01;24.08;;;10.73;;
49688;SDS011;70518;51.400;7.428;2023-11-21T08:11:26;23.55;;;10.43;;
49688;SDS011;70518;51.400;7.428;2023-11-21T08:13:54;21.15;;;10.30;;
49688;SDS011;70518;51.400;7.428;2023-11-21T08:16:20;16.60;;;8.68;;
49688;SDS011;70518;51.400;7.428;2023-11-21T08:18:45;22.63;;;10.80;;
49688;SDS011;70518;51.400;7.428;2023-11-21T08:21:12;22.20;;;10.75;;
49688;SDS011;70518;51.400;7.428;2023-11-21T08:23:38;23.70;;;10.05;;
49688;SDS011;70518;51.400;7.428;2023-11-21T08:26:04;34.55;;;13.68;;
49688;SDS011;70518;51.400;7.428;2023-11-21T08:28:30;24.85;;;11.88;;
49688;SDS011;70518;51.400;7.428;2023-11-21T08:30:55;26.38;;;12.20;;
49688;SDS011;70518;51.400;7.428;2023-11-21T08:33:20;28.35;;;12.27;;
49688;SDS011;70518;51.400;7.428;2023-11-21T08:35:46;26.88;;;12.15;;
49688;SDS011;70518;51.400;7.428;2023-11-21T08:38:11;28.90;;;12.40;;
49688;SDS011;70518;51.400;7.428;2023-11-21T08:40:37;24.77;;;10.95;;
49688;SDS011;70518;51.400;7.428;2023-11-21T08:43:02;27.27;;;11.80;;
49688;SDS011;70518;51.400;7.428;2023-11-21T08:45:29;19.98;;;10.63;;
49688;SDS011;70518;51.400;7.428;2023-11-21T08:47:55;22.85;;;10.45;;
49688;SDS011;70518;51.400;7.428;2023-11-21T08:50:20;20.30;;;9.63;;
49688;SDS011;70518;51.400;7.428;2023-11-21T08:52:46;20.20;;;10.50;;
49688;SDS011;70518;51.400;7.428;2023-11-21T08:55:11;19.15;;;9.43;;
49688;SDS011;70518;51.400;7.428;2023-11-21T08:57:40;25.33;;;10.95;;
49688;SDS011;70518;51.400;7.428;2023-11-21T09:00:06;16.98;;;9.05;;
49688;SDS011;70518;51.400;7.428;2023-11-21T09:02:36;19.15;;;9.15;;
49688;SDS011;70518;51.400;7.428;2023-11-21T09:05:02;22.35;;;10.45;;
49688;SDS011;70518;51.400;7.428;2023-11-21T09:07:31;19.75;;;9.13;;
49688;SDS011;70518;51.400;7.428;2023-11-21T09:09:56;20.77;;;10.25;;
49688;SDS011;70518;51.400;7.428;2023-11-21T09:12:22;23.00;;;10.00;;
49688;SDS011;70518;51.400;7.428;2023-11-21T09:14:49;21.85;;;10.57;;
49688;SDS011;70518;51.400;7.428;2023-11-21T09:17:15;21.80;;;10.27;;
49688;SDS011;70518;51.400;7.428;2023-11-21T09:19:41;20.67;;;9.93;;
49688;SDS011;70518;51.400;7.428;2023-11-21T09:22:08;27.63;;;11.35;;
49688;SDS011;70518;51.400;7.428;2023-11-21T09:24:33;25.13;;;10.55;;
49688;SDS011;70518;51.400;7.428;2023-11-21T09:26:59;31.52;;;11.57;;
49688;SDS011;70518;51.400;7.428;2023-11-21T09:29:28;28.70;;;11.52;;
49688;SDS011;70518;51.400;7.428;2023-11-21T09:31:53;33.72;;;12.93;;
49688;SDS011;70518;51.400;7.428;2023-11-21T09:34:20;30.52;;;12.20;;
49688;SDS011;70518;51.400;7.428;2023-11-21T09:36:45;31.33;;;12.30;;
49688;SDS011;70518;51.400;7.428;2023-11-21T09:39:11;28.92;;;12.73;;
49688;SDS011;70518;51.400;7.428;2023-11-21T09:41:49;31.38;;;12.75;;
49688;SDS011;70518;51.400;7.428;2023-11-21T09:44:21;32.20;;;13.07;;
49688;SDS011;70518;51.400;7.428;2023-11-21T09:46:49;31.60;;;13.25;;
49688;SDS011;70518;51.400;7.428;2023-11-21T09:49:20;36.72;;;13.65;;
49688;SDS011;70518;51.400;7.428;2023-11-21T09:51:50;39.15;;;13.88;;
49688;SDS011;70518;51.400;7.428;2023-11-21T09:54:20;29.83;;;13.07;;
49688;SDS011;70518;51.400;7.428;2023-11-21T09:56:46;32.05;;;13.90;;
49688;SDS011;70518;51.400;7.428;2023-11-21T09:59:13;38.38;;;14.25;;
49688;SDS011;70518;51.400;7.428;2023-11-21T10:01:40;31.05;;;13.40;;
49688;SDS011;70518;51.400;7.428;2023-11-21T10:04:07;38.40;;;15.52;;
49688;SDS011;70518;51.400;7.428;2023-11-21T10:06:37;41.80;;;15.73;;
49688;SDS011;70518;51.400;7.428;2023-11-21T10:09:04;38.63;;;15.93;;
49688;SDS011;70518;51.400;7.428;2023-11-21T10:11:36;43.70;;;15.57;;
49688;SDS011;70518;51.400;7.428;2023-11-21T10:14:06;43.17;;;16.75;;
49688;SDS011;70518;51.400;7.428;2023-11-21T10:16:35;39.33;;;16.25;;
49688;SDS011;70518;51.400;7.428;2023-11-21T10:19:02;37.28;;;14.60;;
49688;SDS011;70518;51.400;7.428;2023-11-21T10:21:29;44.15;;;15.57;;
49688;SDS011;70518;51.400;7.428;2023-11-21T10:23:55;42.50;;;16.83;;
49688;SDS011;70518;51.400;7.428;2023-11-21T10:26:20;42.25;;;16.27;;
49688;SDS011;70518;51.400;7.428;2023-11-21T10:28:55;38.92;;;15.20;;
49688;SDS011;70518;51.400;7.428;2023-11-21T10:31:27;37.55;;;16.67;;
49688;SDS011;70518;51.400;7.428;2023-11-21T10:33:52;42.60;;;16.15;;
49688;SDS011;70518;51.400;7.428;2023-11-21T10:36:27;46.22;;;17.70;;
49688;SDS011;70518;51.400;7.428;2023-11-21T10:38:54;42.17;;;16.05;;
49688;SDS011;70518;51.400;7.428;2023-11-21T10:41:22;42.20;;;16.73;;
49688;SDS011;70518;51.400;7.428;2023-11-21T10:43:48;45.25;;;16.30;;
49688;SDS011;70518;51.400;7.428;2023-11-21T10:46:14;38.83;;;15.35;;
49688;SDS011;70518;51.400;7.428;2023-11-21T10:48:41;37.55;;;15.40;;
49688;SDS011;70518;51.400;7.428;2023-11-21T10:51:07;35.45;;;15.52;;
49688;SDS011;70518;51.400;7.428;2023-11-21T10:53:34;32.85;;;15.10;;
49688;SDS011;70518;51.400;7.428;2023-11-21T10:56:05;37.42;;;15.25;;
49688;SDS011;70518;51.400;7.428;2023-11-21T10:58:33;39.47;;;15.13;;
49688;SDS011;70518;51.400;7.428;2023-11-21T11:01:00;32.88;;;13.57;;
49688;SDS011;70518;51.400;7.428;2023-11-21T11:03:28;31.67;;;14.18;;
49688;SDS011;70518;51.400;7.428;2023-11-21T11:05:55;33.30;;;14.55;;
49688;SDS011;70518;51.400;7.428;2023-11-21T11:08:21;40.47;;;14.57;;
49688;SDS011;70518;51.400;7.428;2023-11-21T11:10:51;30.20;;;13.52;;
49688;SDS011;70518;51.400;7.428;2023-11-21T11:13:17;35.38;;;12.88;;
49688;SDS011;70518;51.400;7.428;2023-11-21T11:15:43;32.55;;;12.35;;
49688;SDS011;70518;51.400;7.428;2023-11-21T11:18:12;40.22;;;12.55;;
49688;SDS011;70518;51.400;7.428;2023-11-21T11:20:38;32.45;;;12.13;;
49688;SDS011;70518;51.400;7.428;2023-11-21T11:23:17;28.38;;;12.48;;
49688;SDS011;70518;51.400;7.428;2023-11-21T11:25:58;28.48;;;11.77;;
49688;SDS011;70518;51.400;7.428;2023-11-21T11:28:40;28.80;;;12.60;;
49688;SDS011;70518;51.400;7.428;2023-11-21T11:31:23;31.05;;;12.65;;
49688;SDS011;70518;51.400;7.428;2023-11-21T11:34:32;37.97;;;14.48;;
49688;SDS011;70518;51.400;7.428;2023-11-21T11:37:00;40.33;;;12.68;;
49688;SDS011;70518;51.400;7.428;2023-11-21T11:39:37;37.20;;;14.20;;
49688;SDS011;70518;51.400;7.428;2023-11-21T11:42:06;36.38;;;14.05;;
49688;SDS011;70518;51.400;7.428;2023-11-21T11:47:16;30.08;;;12.63;;
49688;SDS011;70518;51.400;7.428;2023-11-21T11:57:38;38.15;;;15.27;;
49688;SDS011;70518;51.400;7.428;2023-11-21T12:02:35;44.13;;;16.98;;
49688;SDS011;70518;51.400;7.428;2023-11-21T12:05:02;44.33;;;16.27;;
49688;SDS011;70518;51.400;7.428;2023-11-21T12:10:18;37.53;;;15.95;;
49688;SDS011;70518;51.400;7.428;2023-11-21T12:12:46;43.85;;;17.00;;
49688;SDS011;70518;51.400;7.428;2023-11-21T12:15:13;35.55;;;15.43;;
49688;SDS011;70518;51.400;7.428;2023-11-21T12:17:39;38.47;;;15.80;;
49688;SDS011;70518;51.400;7.428;2023-11-21T12:20:08;46.35;;;15.23;;
49688;SDS011;70518;51.400;7.428;2023-11-21T12:25:14;37.65;;;15.52;;
49688;SDS011;70518;51.400;7.428;2023-11-21T12:27:44;31.00;;;14.73;;
49688;SDS011;70518;51.400;7.428;2023-11-21T12:30:11;34.10;;;14.95;;
49688;SDS011;70518;51.400;7.428;2023-11-21T12:32:42;30.20;;;14.73;;
49688;SDS011;70518;51.400;7.428;2023-11-21T12:35:09;29.55;;;13.43;;
49688;SDS011;70518;51.400;7.428;2023-11-21T12:37:39;26.08;;;13.55;;
49688;SDS011;70518;51.400;7.428;2023-11-21T12:40:08;24.25;;;12.77;;
49688;SDS011;70518;51.400;7.428;2023-11-21T12:42:40;27.55;;;11.68;;
49688;SDS011;70518;51.400;7.428;2023-11-21T12:45:18;26.77;;;12.13;;
49688;SDS011;70518;51.400;7.428;2023-11-21T12:47:47;27.08;;;13.35;;
49688;SDS011;70518;51.400;7.428;2023-11-21T12:50:15;27.95;;;12.70;;
49688;SDS011;70518;51.400;7.428;2023-11-21T12:52:46;28.08;;;13.13;;
49688;SDS011;70518;51.400;7.428;2023-11-21T12:55:13;25.90;;;12.95;;
49688;SDS011;70518;51.400;7.428;2023-11-21T12:57:47;28.10;;;14.38;;
49688;SDS011;70518;51.400;7.428;2023-11-21T13:00:15;33.17;;;14.20;;
49688;SDS011;70518;51.400;7.428;2023-11-21T13:02:51;37.80;;;16.45;;
49688;SDS011;70518;51.400;7.428;2023-11-21T13:08:03;49.40;;;21.95;;
49688;SDS011;70518;51.400;7.428;2023-11-21T13:10:32;44.95;;;21.98;;
49688;SDS011;70518;51.400;7.428;2023-11-21T13:13:01;53.78;;;25.17;;
49688;SDS011;70518;51.400;7.428;2023-11-21T13:15:30;51.35;;;24.38;;
49688;SDS011;70518;51.400;7.428;2023-11-21T13:17:57;53.55;;;26.83;;
49688;SDS011;70518;51.400;7.428;2023-11-21T13:20:25;55.45;;;27.67;;
49688;SDS011;70518;51.400;7.428;2023-11-21T13:22:51;56.85;;;27.25;;
49688;SDS011;70518;51.400;7.428;2023-11-21T13:25:24;57.55;;;26.50;;
49688;SDS011;70518;51.400;7.428;2023-11-21T13:27:52;54.58;;;26.40;;
49688;SDS011;70518;51.400;7.428;2023-11-21T13:30:21;54.55;;;26.23;;
49688;SDS011;70518;51.400;7.428;2023-11-21T13:32:58;49.40;;;25.45;;
49688;SDS011;70518;51.400;7.428;2023-11-21T13:35:26;50.45;;;25.48;;
49688;SDS011;70518;51.400;7.428;2023-11-21T13:38:02;50.30;;;25.45;;
49688;SDS011;70518;51.400;7.428;2023-11-21T13:40:32;51.75;;;24.90;;
49688;SDS011;70518;51.400;7.428;2023-11-21T13:43:04;51.80;;;26.48;;
49688;SDS011;70518;51.400;7.428;2023-11-21T13:45:34;50.80;;;25.30;;
49688;SDS011;70518;51.400;7.428;2023-11-21T13:48:04;46.92;;;24.98;;
49688;SDS011;70518;51.400;7.428;2023-11-21T13:50:33;49.00;;;24.63;;
49688;SDS011;70518;51.400;7.428;2023-11-21T13:53:02;47.38;;;23.73;;
49688;SDS011;70518;51.400;7.428;2023-11-21T13:55:35;38.95;;;21.50;;
49688;SDS011;70518;51.400;7.428;2023-11-21T13:58:02;41.40;;;23.65;;
49688;SDS011;70518;51.400;7.428;2023-11-21T14:00:34;45.50;;;23.35;;
49688;SDS011;70518;51.400;7.428;2023-11-21T14:03:17;41.72;;;22.27;;
49688;SDS011;70518;51.400;7.428;2023-11-21T14:05:45;40.88;;;22.23;;
49688;SDS011;70518;51.400;7.428;2023-11-21T14:08:18;33.85;;;17.48;;
49688;SDS011;70518;51.400;7.428;2023-11-21T14:10:49;26.63;;;14.55;;
49688;SDS011;70518;51.400;7.428;2023-11-21T14:13:18;24.15;;;13.25;;
49688;SDS011;70518;51.400;7.428;2023-11-21T14:15:45;23.10;;;13.45;;
49688;SDS011;70518;51.400;7.428;2023-11-21T14:18:15;21.65;;;11.55;;
49688;SDS011;70518;51.400;7.428;2023-11-21T14:20:42;22.63;;;12.20;;
49688;SDS011;70518;51.400;7.428;2023-11-21T14:23:09;25.90;;;13.63;;
49688;SDS011;70518;51.400;7.428;2023-11-21T14:25:35;27.13;;;13.27;;
49688;SDS011;70518;51.400;7.428;2023-11-21T14:28:02;22.73;;;12.80;;
49688;SDS011;70518;51.400;7.428;2023-11-21T14:30:29;21.67;;;12.20;;
49688;SDS011;70518;51.400;7.428;2023-11-21T14:32:56;19.08;;;9.65;;
49688;SDS011;70518;51.400;7.428;2023-11-21T14:35:23;13.52;;;8.10;;
49688;SDS011;70518;51.400;7.428;2023-11-21T14:37:48;17.15;;;7.53;;
49688;SDS011;70518;51.400;7.428;2023-11-21T14:40:14;13.80;;;6.40;;
49688;SDS011;70518;51.400;7.428;2023-11-21T14:42:41;11.90;;;6.35;;
49688;SDS011;70518;51.400;7.428;2023-11-21T14:45:07;13.30;;;5.90;;
49688;SDS011;70518;51.400;7.428;2023-11-21T14:47:34;10.13;;;5.35;;
49688;SDS011;70518;51.400;7.428;2023-11-21T14:50:00;9.88;;;5.68;;